sensor_id;sensor_type;location;lat;lon;timestamp;temperature;humidity
40287;DHT22;25998;46.604;13.610;2023-08-20T00:02:37;21.10;99.90
40287;DHT22;25998;46.604;13.610;2023-08-20T00:05:48;21.10;99.90
40287;DHT22;25998;46.604;13.610;2023-08-20T00:08:59;21.00;99.90
40287;DHT22;25998;46.604;13.610;2023-08-20T00:12:10;20.90;99.90
40287;DHT22;25998;46.604;13.610;2023-08-20T00:15:21;20.70;99.90
40287;DHT22;25998;46.604;13.610;2023-08-20T00:18:38;20.60;99.90
40287;DHT22;25998;46.604;13.610;2023-08-20T00:21:49;20.80;99.90
40287;DHT22;25998;46.604;13.610;2023-08-20T00:25:00;20.70;99.90
40287;DHT22;25998;46.604;13.610;2023-08-20T00:28:11;20.50;99.90
40287;DHT22;25998;46.604;13.610;2023-08-20T00:31:22;20.40;99.90
40287;DHT22;25998;46.604;13.610;2023-08-20T00:34:33;20.30;99.90
40287;DHT22;25998;46.604;13.610;2023-08-20T00:37:44;20.10;99.90
40287;DHT22;25998;46.604;13.610;2023-08-20T00:40:55;20.00;99.90
40287;DHT22;25998;46.604;13.610;2023-08-20T00:44:06;20.10;99.90
40287;DHT22;25998;46.604;13.610;2023-08-20T00:47:17;20.30;99.90
40287;DHT22;25998;46.604;13.610;2023-08-20T00:50:29;20.50;99.90
40287;DHT22;25998;46.604;13.610;2023-08-20T00:53:39;20.70;99.90
40287;DHT22;25998;46.604;13.610;2023-08-20T00:56:51;20.70;99.90
40287;DHT22;25998;46.604;13.610;2023-08-20T01:00:03;20.80;99.90
40287;DHT22;25998;46.604;13.610;2023-08-20T01:03:22;20.80;99.90
40287;DHT22;25998;46.604;13.610;2023-08-20T01:13:18;20.30;99.90
40287;DHT22;25998;46.604;13.610;2023-08-20T01:16:29;20.20;99.90
40287;DHT22;25998;46.604;13.610;2023-08-20T01:19:41;20.40;99.90
40287;DHT22;25998;46.604;13.610;2023-08-20T01:26:34;20.20;99.90
40287;DHT22;25998;46.604;13.610;2023-08-20T01:29:47;20.30;99.90
40287;DHT22;25998;46.604;13.610;2023-08-20T01:32:58;20.10;99.90
40287;DHT22;25998;46.604;13.610;2023-08-20T01:36:09;19.90;99.90
40287;DHT22;25998;46.604;13.610;2023-08-20T01:39:20;19.70;99.90
40287;DHT22;25998;46.604;13.610;2023-08-20T01:42:31;19.80;99.90
40287;DHT22;25998;46.604;13.610;2023-08-20T01:45:42;19.90;99.90
40287;DHT22;25998;46.604;13.610;2023-08-20T01:48:53;20.10;99.90
40287;DHT22;25998;46.604;13.610;2023-08-20T01:52:04;20.10;99.90
40287;DHT22;25998;46.604;13.610;2023-08-20T01:55:15;20.00;99.90
40287;DHT22;25998;46.604;13.610;2023-08-20T01:58:26;20.00;99.90
40287;DHT22;25998;46.604;13.610;2023-08-20T02:01:37;20.10;99.90
40287;DHT22;25998;46.604;13.610;2023-08-20T02:04:47;20.00;99.90
40287;DHT22;25998;46.604;13.610;2023-08-20T02:07:58;20.00;99.90
40287;DHT22;25998;46.604;13.610;2023-08-20T02:11:09;20.10;99.90
40287;DHT22;25998;46.604;13.610;2023-08-20T02:14:20;20.10;99.90
40287;DHT22;25998;46.604;13.610;2023-08-20T02:17:31;20.20;99.90
40287;DHT22;25998;46.604;13.610;2023-08-20T02:20:43;20.30;99.90
40287;DHT22;25998;46.604;13.610;2023-08-20T02:23:54;20.00;99.90
40287;DHT22;25998;46.604;13.610;2023-08-20T02:27:05;19.70;99.90
40287;DHT22;25998;46.604;13.610;2023-08-20T02:30:16;19.70;99.90
40287;DHT22;25998;46.604;13.610;2023-08-20T02:33:26;19.90;99.90
40287;DHT22;25998;46.604;13.610;2023-08-20T02:36:37;20.00;99.90
40287;DHT22;25998;46.604;13.610;2023-08-20T02:39:48;19.70;99.90
40287;DHT22;25998;46.604;13.610;2023-08-20T02:42:59;19.80;99.90
40287;DHT22;25998;46.604;13.610;2023-08-20T02:46:10;19.60;99.90
40287;DHT22;25998;46.604;13.610;2023-08-20T02:49:20;19.60;99.90
40287;DHT22;25998;46.604;13.610;2023-08-20T02:52:31;19.80;99.90
40287;DHT22;25998;46.604;13.610;2023-08-20T02:55:42;19.80;99.90
40287;DHT22;25998;46.604;13.610;2023-08-20T02:58:53;19.90;99.90
40287;DHT22;25998;46.604;13.610;2023-08-20T03:02:04;19.90;99.90
40287;DHT22;25998;46.604;13.610;2023-08-20T03:05:15;19.70;99.90
40287;DHT22;25998;46.604;13.610;2023-08-20T03:08:26;19.70;99.90
40287;DHT22;25998;46.604;13.610;2023-08-20T03:11:36;19.70;99.90
40287;DHT22;25998;46.604;13.610;2023-08-20T03:14:47;19.80;99.90
40287;DHT22;25998;46.604;13.610;2023-08-20T03:17:58;19.40;99.90
40287;DHT22;25998;46.604;13.610;2023-08-20T03:21:09;19.20;99.90
40287;DHT22;25998;46.604;13.610;2023-08-20T03:24:20;19.30;99.90
40287;DHT22;25998;46.604;13.610;2023-08-20T03:27:31;19.30;99.90
40287;DHT22;25998;46.604;13.610;2023-08-20T03:30:42;19.30;99.90
40287;DHT22;25998;46.604;13.610;2023-08-20T03:33:53;19.40;99.90
40287;DHT22;25998;46.604;13.610;2023-08-20T03:37:04;19.40;99.90
40287;DHT22;25998;46.604;13.610;2023-08-20T03:40:15;19.40;99.90
40287;DHT22;25998;46.604;13.610;2023-08-20T03:43:26;19.50;99.90
40287;DHT22;25998;46.604;13.610;2023-08-20T03:46:36;19.60;99.90
40287;DHT22;25998;46.604;13.610;2023-08-20T03:49:47;19.50;99.90
40287;DHT22;25998;46.604;13.610;2023-08-20T03:52:59;19.40;99.90
40287;DHT22;25998;46.604;13.610;2023-08-20T03:56:09;19.20;99.90
40287;DHT22;25998;46.604;13.610;2023-08-20T03:59:20;19.00;99.90
40287;DHT22;25998;46.604;13.610;2023-08-20T04:02:31;19.20;99.90
40287;DHT22;25998;46.604;13.610;2023-08-20T04:05:42;19.10;99.90
40287;DHT22;25998;46.604;13.610;2023-08-20T04:08:53;18.90;99.90
40287;DHT22;25998;46.604;13.610;2023-08-20T04:12:05;18.90;99.90
40287;DHT22;25998;46.604;13.610;2023-08-20T04:15:16;18.90;99.90
40287;DHT22;25998;46.604;13.610;2023-08-20T04:18:27;19.00;99.90
40287;DHT22;25998;46.604;13.610;2023-08-20T04:21:37;19.10;99.90
40287;DHT22;25998;46.604;13.610;2023-08-20T04:24:48;19.20;99.90
40287;DHT22;25998;46.604;13.610;2023-08-20T04:27:59;19.00;99.90
40287;DHT22;25998;46.604;13.610;2023-08-20T04:31:10;19.10;99.90
40287;DHT22;25998;46.604;13.610;2023-08-20T04:34:21;19.20;99.90
40287;DHT22;25998;46.604;13.610;2023-08-20T04:37:32;19.00;99.90
40287;DHT22;25998;46.604;13.610;2023-08-20T04:40:45;18.60;99.90
40287;DHT22;25998;46.604;13.610;2023-08-20T04:43:57;18.60;99.90
40287;DHT22;25998;46.604;13.610;2023-08-20T04:47:11;18.60;99.90
40287;DHT22;25998;46.604;13.610;2023-08-20T04:50:24;18.50;99.90
40287;DHT22;25998;46.604;13.610;2023-08-20T04:53:35;18.50;99.90
40287;DHT22;25998;46.604;13.610;2023-08-20T04:56:46;18.50;99.90
40287;DHT22;25998;46.604;13.610;2023-08-20T04:59:56;18.40;99.90
40287;DHT22;25998;46.604;13.610;2023-08-20T05:03:07;18.40;99.90
40287;DHT22;25998;46.604;13.610;2023-08-20T05:06:18;18.60;99.90
40287;DHT22;25998;46.604;13.610;2023-08-20T05:09:29;18.70;99.90
40287;DHT22;25998;46.604;13.610;2023-08-20T05:12:40;18.70;99.90
40287;DHT22;25998;46.604;13.610;2023-08-20T05:15:51;18.80;99.90
40287;DHT22;25998;46.604;13.610;2023-08-20T05:19:02;18.70;99.90
40287;DHT22;25998;46.604;13.610;2023-08-20T05:22:12;18.50;99.90
40287;DHT22;25998;46.604;13.610;2023-08-20T05:25:23;18.50;99.90
40287;DHT22;25998;46.604;13.610;2023-08-20T05:28:35;18.60;99.90
40287;DHT22;25998;46.604;13.610;2023-08-20T05:31:46;18.70;99.90
40287;DHT22;25998;46.604;13.610;2023-08-20T05:34:56;18.80;99.90
40287;DHT22;25998;46.604;13.610;2023-08-20T05:38:07;18.70;99.90
40287;DHT22;25998;46.604;13.610;2023-08-20T05:41:18;18.70;99.90
40287;DHT22;25998;46.604;13.610;2023-08-20T05:44:29;18.90;99.90
40287;DHT22;25998;46.604;13.610;2023-08-20T05:47:40;19.00;99.90
40287;DHT22;25998;46.604;13.610;2023-08-20T05:50:50;19.00;99.90
40287;DHT22;25998;46.604;13.610;2023-08-20T05:54:01;18.80;99.90
40287;DHT22;25998;46.604;13.610;2023-08-20T05:57:12;18.70;99.90
40287;DHT22;25998;46.604;13.610;2023-08-20T06:00:23;18.60;99.90
40287;DHT22;25998;46.604;13.610;2023-08-20T06:03:34;18.50;99.90
40287;DHT22;25998;46.604;13.610;2023-08-20T06:06:45;18.40;99.90
40287;DHT22;25998;46.604;13.610;2023-08-20T06:09:56;18.30;99.90
40287;DHT22;25998;46.604;13.610;2023-08-20T06:13:07;18.50;99.90
40287;DHT22;25998;46.604;13.610;2023-08-20T06:16:18;18.80;99.90
40287;DHT22;25998;46.604;13.610;2023-08-20T06:19:28;19.00;99.90
40287;DHT22;25998;46.604;13.610;2023-08-20T06:22:40;19.10;99.90
40287;DHT22;25998;46.604;13.610;2023-08-20T06:25:51;19.00;99.90
40287;DHT22;25998;46.604;13.610;2023-08-20T06:29:02;19.00;99.90
40287;DHT22;25998;46.604;13.610;2023-08-20T06:32:13;19.00;99.90
40287;DHT22;25998;46.604;13.610;2023-08-20T06:35:24;19.20;99.90
40287;DHT22;25998;46.604;13.610;2023-08-20T06:38:34;19.20;99.90
40287;DHT22;25998;46.604;13.610;2023-08-20T06:41:45;19.30;99.90
40287;DHT22;25998;46.604;13.610;2023-08-20T06:44:56;19.40;99.90
40287;DHT22;25998;46.604;13.610;2023-08-20T06:48:07;19.70;99.90
40287;DHT22;25998;46.604;13.610;2023-08-20T06:51:21;19.80;99.90
40287;DHT22;25998;46.604;13.610;2023-08-20T06:54:32;20.00;99.90
40287;DHT22;25998;46.604;13.610;2023-08-20T06:57:43;20.50;99.90
40287;DHT22;25998;46.604;13.610;2023-08-20T07:00:54;21.40;99.90
40287;DHT22;25998;46.604;13.610;2023-08-20T07:04:05;22.20;99.90
40287;DHT22;25998;46.604;13.610;2023-08-20T07:07:16;23.10;99.90
40287;DHT22;25998;46.604;13.610;2023-08-20T07:10:27;23.70;99.90
40287;DHT22;25998;46.604;13.610;2023-08-20T07:13:38;24.10;99.90
40287;DHT22;25998;46.604;13.610;2023-08-20T07:16:49;24.40;99.90
40287;DHT22;25998;46.604;13.610;2023-08-20T07:20:00;24.80;99.90
40287;DHT22;25998;46.604;13.610;2023-08-20T07:23:11;25.00;99.90
40287;DHT22;25998;46.604;13.610;2023-08-20T07:26:22;25.50;99.90
40287;DHT22;25998;46.604;13.610;2023-08-20T07:29:33;25.60;99.90
40287;DHT22;25998;46.604;13.610;2023-08-20T07:32:44;25.70;99.90
40287;DHT22;25998;46.604;13.610;2023-08-20T07:35:55;25.90;99.90
40287;DHT22;25998;46.604;13.610;2023-08-20T07:39:06;26.00;99.90
40287;DHT22;25998;46.604;13.610;2023-08-20T07:42:16;26.50;99.80
40287;DHT22;25998;46.604;13.610;2023-08-20T07:45:28;26.50;99.30
40287;DHT22;25998;46.604;13.610;2023-08-20T07:48:40;26.60;99.80
40287;DHT22;25998;46.604;13.610;2023-08-20T07:51:51;27.00;99.50
40287;DHT22;25998;46.604;13.610;2023-08-20T07:55:03;27.30;99.50
40287;DHT22;25998;46.604;13.610;2023-08-20T07:58:14;27.70;98.70
40287;DHT22;25998;46.604;13.610;2023-08-20T08:01:24;27.80;98.00
40287;DHT22;25998;46.604;13.610;2023-08-20T08:04:36;27.70;97.30
40287;DHT22;25998;46.604;13.610;2023-08-20T08:07:46;28.00;97.30
40287;DHT22;25998;46.604;13.610;2023-08-20T08:10:57;27.70;96.60
40287;DHT22;25998;46.604;13.610;2023-08-20T08:14:08;27.90;97.10
40287;DHT22;25998;46.604;13.610;2023-08-20T08:17:19;28.20;97.30
40287;DHT22;25998;46.604;13.610;2023-08-20T08:20:31;28.40;95.90
40287;DHT22;25998;46.604;13.610;2023-08-20T08:23:42;28.80;95.60
40287;DHT22;25998;46.604;13.610;2023-08-20T08:26:53;28.80;95.70
40287;DHT22;25998;46.604;13.610;2023-08-20T08:30:04;29.00;94.60
40287;DHT22;25998;46.604;13.610;2023-08-20T08:33:15;29.20;96.50
40287;DHT22;25998;46.604;13.610;2023-08-20T08:36:26;29.20;95.00
40287;DHT22;25998;46.604;13.610;2023-08-20T08:39:36;29.10;94.70
40287;DHT22;25998;46.604;13.610;2023-08-20T08:42:48;29.20;96.00
40287;DHT22;25998;46.604;13.610;2023-08-20T08:46:12;29.40;95.40
40287;DHT22;25998;46.604;13.610;2023-08-20T08:49:24;29.50;94.20
40287;DHT22;25998;46.604;13.610;2023-08-20T08:52:37;29.50;94.20
40287;DHT22;25998;46.604;13.610;2023-08-20T08:55:49;29.50;94.70
40287;DHT22;25998;46.604;13.610;2023-08-20T08:59:00;29.70;94.60
40287;DHT22;25998;46.604;13.610;2023-08-20T09:02:12;29.60;94.20
40287;DHT22;25998;46.604;13.610;2023-08-20T09:05:23;29.80;94.70
40287;DHT22;25998;46.604;13.610;2023-08-20T09:08:34;30.00;94.50
40287;DHT22;25998;46.604;13.610;2023-08-20T09:11:46;30.00;94.30
40287;DHT22;25998;46.604;13.610;2023-08-20T09:14:57;30.00;94.20
40287;DHT22;25998;46.604;13.610;2023-08-20T09:18:11;30.10;93.90
40287;DHT22;25998;46.604;13.610;2023-08-20T09:21:29;30.00;94.30
40287;DHT22;25998;46.604;13.610;2023-08-20T09:24:43;30.20;93.80
40287;DHT22;25998;46.604;13.610;2023-08-20T09:27:54;30.20;93.60
40287;DHT22;25998;46.604;13.610;2023-08-20T09:31:05;30.40;94.30
40287;DHT22;25998;46.604;13.610;2023-08-20T09:34:16;30.40;94.30
40287;DHT22;25998;46.604;13.610;2023-08-20T09:37:27;30.30;93.40
40287;DHT22;25998;46.604;13.610;2023-08-20T09:40:38;30.20;93.50
40287;DHT22;25998;46.604;13.610;2023-08-20T09:43:58;30.00;94.30
40287;DHT22;25998;46.604;13.610;2023-08-20T09:47:13;29.90;94.30
40287;DHT22;25998;46.604;13.610;2023-08-20T09:50:26;30.00;94.70
40287;DHT22;25998;46.604;13.610;2023-08-20T09:57:15;30.30;93.50
40287;DHT22;25998;46.604;13.610;2023-08-20T10:00:28;30.70;94.00
40287;DHT22;25998;46.604;13.610;2023-08-20T10:03:39;30.90;93.30
40287;DHT22;25998;46.604;13.610;2023-08-20T10:06:52;31.10;93.70
40287;DHT22;25998;46.604;13.610;2023-08-20T10:10:07;31.40;93.30
40287;DHT22;25998;46.604;13.610;2023-08-20T10:13:18;31.30;93.00
40287;DHT22;25998;46.604;13.610;2023-08-20T10:16:33;31.40;92.90
40287;DHT22;25998;46.604;13.610;2023-08-20T10:19:44;31.50;92.20
40287;DHT22;25998;46.604;13.610;2023-08-20T10:23:00;31.80;93.40
40287;DHT22;25998;46.604;13.610;2023-08-20T10:26:14;31.90;92.00
40287;DHT22;25998;46.604;13.610;2023-08-20T10:29:36;32.00;91.90
40287;DHT22;25998;46.604;13.610;2023-08-20T10:32:51;32.00;92.00
40287;DHT22;25998;46.604;13.610;2023-08-20T10:36:17;32.10;91.00
40287;DHT22;25998;46.604;13.610;2023-08-20T10:39:29;32.30;90.70
40287;DHT22;25998;46.604;13.610;2023-08-20T10:42:41;32.20;91.30
40287;DHT22;25998;46.604;13.610;2023-08-20T10:49:18;32.20;88.20
40287;DHT22;25998;46.604;13.610;2023-08-20T10:52:29;32.20;88.40
40287;DHT22;25998;46.604;13.610;2023-08-20T10:55:48;31.90;88.80
40287;DHT22;25998;46.604;13.610;2023-08-20T10:59:06;31.80;90.50
40287;DHT22;25998;46.604;13.610;2023-08-20T11:02:18;32.00;90.00
40287;DHT22;25998;46.604;13.610;2023-08-20T11:05:29;32.10;89.70
40287;DHT22;25998;46.604;13.610;2023-08-20T11:08:42;32.10;89.50
40287;DHT22;25998;46.604;13.610;2023-08-20T11:11:54;32.10;90.10
40287;DHT22;25998;46.604;13.610;2023-08-20T11:15:06;31.90;90.00
40287;DHT22;25998;46.604;13.610;2023-08-20T11:18:18;32.30;90.70
40287;DHT22;25998;46.604;13.610;2023-08-20T11:21:29;32.40;90.10
40287;DHT22;25998;46.604;13.610;2023-08-20T11:24:42;32.40;88.80
40287;DHT22;25998;46.604;13.610;2023-08-20T11:27:53;32.40;90.60
40287;DHT22;25998;46.604;13.610;2023-08-20T11:31:04;32.30;91.40
40287;DHT22;25998;46.604;13.610;2023-08-20T11:34:16;32.40;89.30
40287;DHT22;25998;46.604;13.610;2023-08-20T11:37:28;32.40;88.70
40287;DHT22;25998;46.604;13.610;2023-08-20T11:40:39;32.80;87.70
40287;DHT22;25998;46.604;13.610;2023-08-20T11:43:53;33.10;88.60
40287;DHT22;25998;46.604;13.610;2023-08-20T11:47:14;33.10;87.80
40287;DHT22;25998;46.604;13.610;2023-08-20T11:50:25;33.30;89.20
40287;DHT22;25998;46.604;13.610;2023-08-20T11:53:35;33.30;85.20
40287;DHT22;25998;46.604;13.610;2023-08-20T11:56:50;33.10;85.20
40287;DHT22;25998;46.604;13.610;2023-08-20T12:00:05;33.20;86.50
40287;DHT22;25998;46.604;13.610;2023-08-20T12:03:29;33.10;82.20
40287;DHT22;25998;46.604;13.610;2023-08-20T12:06:41;32.60;84.20
40287;DHT22;25998;46.604;13.610;2023-08-20T12:09:56;32.70;84.20
40287;DHT22;25998;46.604;13.610;2023-08-20T12:13:08;32.80;86.20
40287;DHT22;25998;46.604;13.610;2023-08-20T12:16:22;32.90;85.00
40287;DHT22;25998;46.604;13.610;2023-08-20T12:19:33;33.30;83.30
40287;DHT22;25998;46.604;13.610;2023-08-20T12:22:44;33.30;82.90
40287;DHT22;25998;46.604;13.610;2023-08-20T12:25:55;33.00;84.50
40287;DHT22;25998;46.604;13.610;2023-08-20T12:29:06;33.10;86.80
40287;DHT22;25998;46.604;13.610;2023-08-20T12:32:17;33.00;85.40
40287;DHT22;25998;46.604;13.610;2023-08-20T12:35:28;32.70;84.00
40287;DHT22;25998;46.604;13.610;2023-08-20T12:38:39;32.70;84.40
40287;DHT22;25998;46.604;13.610;2023-08-20T12:41:52;32.90;86.20
40287;DHT22;25998;46.604;13.610;2023-08-20T12:45:03;33.10;85.70
40287;DHT22;25998;46.604;13.610;2023-08-20T12:48:14;33.10;83.40
40287;DHT22;25998;46.604;13.610;2023-08-20T12:51:26;33.10;84.00
40287;DHT22;25998;46.604;13.610;2023-08-20T12:54:37;32.90;84.60
40287;DHT22;25998;46.604;13.610;2023-08-20T12:57:58;33.10;85.20
40287;DHT22;25998;46.604;13.610;2023-08-20T13:01:09;32.60;83.90
40287;DHT22;25998;46.604;13.610;2023-08-20T13:04:20;32.70;84.40
40287;DHT22;25998;46.604;13.610;2023-08-20T13:07:31;32.80;85.20
40287;DHT22;25998;46.604;13.610;2023-08-20T13:10:50;32.80;84.50
40287;DHT22;25998;46.604;13.610;2023-08-20T13:14:03;32.90;84.30
40287;DHT22;25998;46.604;13.610;2023-08-20T13:17:14;33.10;85.00
40287;DHT22;25998;46.604;13.610;2023-08-20T13:20:25;33.00;81.50
40287;DHT22;25998;46.604;13.610;2023-08-20T13:23:37;33.00;81.10
40287;DHT22;25998;46.604;13.610;2023-08-20T13:26:48;32.80;83.80
40287;DHT22;25998;46.604;13.610;2023-08-20T13:29:59;32.90;82.50
40287;DHT22;25998;46.604;13.610;2023-08-20T13:33:15;32.80;81.10
40287;DHT22;25998;46.604;13.610;2023-08-20T13:36:26;32.60;82.00
40287;DHT22;25998;46.604;13.610;2023-08-20T13:39:37;32.60;81.90
40287;DHT22;25998;46.604;13.610;2023-08-20T13:42:48;32.80;81.30
40287;DHT22;25998;46.604;13.610;2023-08-20T13:45:59;32.80;82.80
40287;DHT22;25998;46.604;13.610;2023-08-20T13:49:09;32.60;83.00
40287;DHT22;25998;46.604;13.610;2023-08-20T13:52:20;32.50;83.00
40287;DHT22;25998;46.604;13.610;2023-08-20T13:55:31;32.40;81.50
40287;DHT22;25998;46.604;13.610;2023-08-20T13:58:42;32.40;81.30
40287;DHT22;25998;46.604;13.610;2023-08-20T14:01:53;32.20;79.70
40287;DHT22;25998;46.604;13.610;2023-08-20T14:05:05;32.30;81.50
40287;DHT22;25998;46.604;13.610;2023-08-20T14:08:16;32.20;79.70
40287;DHT22;25998;46.604;13.610;2023-08-20T14:11:26;32.20;80.20
40287;DHT22;25998;46.604;13.610;2023-08-20T14:14:37;32.20;79.10
40287;DHT22;25998;46.604;13.610;2023-08-20T14:17:48;32.20;79.30
40287;DHT22;25998;46.604;13.610;2023-08-20T14:20:59;32.20;80.40
40287;DHT22;25998;46.604;13.610;2023-08-20T14:24:10;32.20;78.30
40287;DHT22;25998;46.604;13.610;2023-08-20T14:27:20;32.30;78.10
40287;DHT22;25998;46.604;13.610;2023-08-20T14:30:36;32.20;79.80
40287;DHT22;25998;46.604;13.610;2023-08-20T14:33:48;32.30;77.90
40287;DHT22;25998;46.604;13.610;2023-08-20T14:36:58;32.40;79.10
40287;DHT22;25998;46.604;13.610;2023-08-20T14:40:10;32.20;79.20
40287;DHT22;25998;46.604;13.610;2023-08-20T14:43:21;32.20;77.80
40287;DHT22;25998;46.604;13.610;2023-08-20T14:46:31;32.10;78.00
40287;DHT22;25998;46.604;13.610;2023-08-20T14:49:42;32.20;80.10
40287;DHT22;25998;46.604;13.610;2023-08-20T14:52:53;32.20;80.90
40287;DHT22;25998;46.604;13.610;2023-08-20T14:56:04;32.00;78.70
40287;DHT22;25998;46.604;13.610;2023-08-20T14:59:15;32.00;78.80
40287;DHT22;25998;46.604;13.610;2023-08-20T15:02:25;31.90;79.70
40287;DHT22;25998;46.604;13.610;2023-08-20T15:05:36;31.80;79.00
40287;DHT22;25998;46.604;13.610;2023-08-20T15:08:47;31.80;80.40
40287;DHT22;25998;46.604;13.610;2023-08-20T15:11:58;31.90;81.90
40287;DHT22;25998;46.604;13.610;2023-08-20T15:15:09;31.80;81.60
40287;DHT22;25998;46.604;13.610;2023-08-20T15:18:20;31.90;81.70
40287;DHT22;25998;46.604;13.610;2023-08-20T15:21:31;32.00;80.20
40287;DHT22;25998;46.604;13.610;2023-08-20T15:24:42;31.90;80.90
40287;DHT22;25998;46.604;13.610;2023-08-20T15:27:53;31.70;81.30
40287;DHT22;25998;46.604;13.610;2023-08-20T15:31:04;31.60;81.10
40287;DHT22;25998;46.604;13.610;2023-08-20T15:34:15;31.70;82.30
40287;DHT22;25998;46.604;13.610;2023-08-20T15:37:26;31.60;81.50
40287;DHT22;25998;46.604;13.610;2023-08-20T15:40:40;31.50;82.00
40287;DHT22;25998;46.604;13.610;2023-08-20T15:43:50;31.40;82.80
40287;DHT22;25998;46.604;13.610;2023-08-20T15:47:01;31.30;88.50
40287;DHT22;25998;46.604;13.610;2023-08-20T15:50:12;31.10;87.30
40287;DHT22;25998;46.604;13.610;2023-08-20T15:53:23;31.20;83.40
40287;DHT22;25998;46.604;13.610;2023-08-20T15:56:38;30.90;87.40
40287;DHT22;25998;46.604;13.610;2023-08-20T15:59:50;30.70;86.90
40287;DHT22;25998;46.604;13.610;2023-08-20T16:03:01;30.40;89.30
40287;DHT22;25998;46.604;13.610;2023-08-20T16:06:12;30.40;88.80
40287;DHT22;25998;46.604;13.610;2023-08-20T16:09:23;30.10;89.70
40287;DHT22;25998;46.604;13.610;2023-08-20T16:12:34;29.80;91.20
40287;DHT22;25998;46.604;13.610;2023-08-20T16:15:45;29.70;90.60
40287;DHT22;25998;46.604;13.610;2023-08-20T16:18:56;29.70;90.80
40287;DHT22;25998;46.604;13.610;2023-08-20T16:22:07;29.40;91.90
40287;DHT22;25998;46.604;13.610;2023-08-20T16:25:17;28.90;92.60
40287;DHT22;25998;46.604;13.610;2023-08-20T16:28:29;28.80;92.90
40287;DHT22;25998;46.604;13.610;2023-08-20T16:31:39;28.70;93.40
40287;DHT22;25998;46.604;13.610;2023-08-20T16:34:50;28.60;93.10
40287;DHT22;25998;46.604;13.610;2023-08-20T16:38:01;28.60;93.50
40287;DHT22;25998;46.604;13.610;2023-08-20T16:41:13;28.50;93.60
40287;DHT22;25998;46.604;13.610;2023-08-20T16:44:24;28.20;93.80
40287;DHT22;25998;46.604;13.610;2023-08-20T16:47:35;28.10;94.20
40287;DHT22;25998;46.604;13.610;2023-08-20T16:50:45;27.90;94.30
40287;DHT22;25998;46.604;13.610;2023-08-20T16:53:58;27.80;94.50
40287;DHT22;25998;46.604;13.610;2023-08-20T16:57:09;27.70;94.80
40287;DHT22;25998;46.604;13.610;2023-08-20T17:00:20;27.60;95.30
40287;DHT22;25998;46.604;13.610;2023-08-20T17:03:31;27.50;95.50
40287;DHT22;25998;46.604;13.610;2023-08-20T17:06:42;27.40;95.70
40287;DHT22;25998;46.604;13.610;2023-08-20T17:09:53;27.20;95.80
40287;DHT22;25998;46.604;13.610;2023-08-20T17:13:04;27.00;96.30
40287;DHT22;25998;46.604;13.610;2023-08-20T17:16:15;26.80;96.50
40287;DHT22;25998;46.604;13.610;2023-08-20T17:19:26;26.70;96.60
40287;DHT22;25998;46.604;13.610;2023-08-20T17:22:37;26.60;96.50
40287;DHT22;25998;46.604;13.610;2023-08-20T17:25:48;26.40;96.40
40287;DHT22;25998;46.604;13.610;2023-08-20T17:28:59;26.20;96.80
40287;DHT22;25998;46.604;13.610;2023-08-20T17:32:10;26.00;96.60
40287;DHT22;25998;46.604;13.610;2023-08-20T17:35:21;26.00;96.40
40287;DHT22;25998;46.604;13.610;2023-08-20T17:38:32;25.90;96.00
40287;DHT22;25998;46.604;13.610;2023-08-20T17:41:44;25.90;96.40
40287;DHT22;25998;46.604;13.610;2023-08-20T17:44:55;26.10;96.30
40287;DHT22;25998;46.604;13.610;2023-08-20T17:48:06;26.10;96.00
40287;DHT22;25998;46.604;13.610;2023-08-20T17:51:17;25.90;96.40
40287;DHT22;25998;46.604;13.610;2023-08-20T17:54:28;25.90;96.20
40287;DHT22;25998;46.604;13.610;2023-08-20T17:57:38;25.80;96.30
40287;DHT22;25998;46.604;13.610;2023-08-20T18:00:49;25.50;96.40
40287;DHT22;25998;46.604;13.610;2023-08-20T18:04:00;25.50;96.40
40287;DHT22;25998;46.604;13.610;2023-08-20T18:07:11;25.50;96.10
40287;DHT22;25998;46.604;13.610;2023-08-20T18:10:22;25.50;96.10
40287;DHT22;25998;46.604;13.610;2023-08-20T18:13:34;25.30;96.60
40287;DHT22;25998;46.604;13.610;2023-08-20T18:16:45;25.40;96.30
40287;DHT22;25998;46.604;13.610;2023-08-20T18:19:56;25.60;96.00
40287;DHT22;25998;46.604;13.610;2023-08-20T18:23:07;25.40;96.40
40287;DHT22;25998;46.604;13.610;2023-08-20T18:26:18;25.40;96.50
40287;DHT22;25998;46.604;13.610;2023-08-20T18:29:29;25.40;96.30
40287;DHT22;25998;46.604;13.610;2023-08-20T18:32:40;25.20;96.50
40287;DHT22;25998;46.604;13.610;2023-08-20T18:35:56;25.00;96.80
40287;DHT22;25998;46.604;13.610;2023-08-20T18:39:08;25.20;96.60
40287;DHT22;25998;46.604;13.610;2023-08-20T18:42:20;25.00;96.90
40287;DHT22;25998;46.604;13.610;2023-08-20T18:45:31;24.70;97.30
40287;DHT22;25998;46.604;13.610;2023-08-20T18:48:41;24.70;97.30
40287;DHT22;25998;46.604;13.610;2023-08-20T18:51:52;24.70;97.30
40287;DHT22;25998;46.604;13.610;2023-08-20T18:55:03;24.60;97.40
40287;DHT22;25998;46.604;13.610;2023-08-20T18:58:16;24.70;97.10
40287;DHT22;25998;46.604;13.610;2023-08-20T19:01:26;24.70;96.60
40287;DHT22;25998;46.604;13.610;2023-08-20T19:04:38;24.50;97.10
40287;DHT22;25998;46.604;13.610;2023-08-20T19:07:50;24.60;97.00
40287;DHT22;25998;46.604;13.610;2023-08-20T19:11:03;24.60;96.90
40287;DHT22;25998;46.604;13.610;2023-08-20T19:14:14;24.30;97.30
40287;DHT22;25998;46.604;13.610;2023-08-20T19:17:25;24.20;97.50
40287;DHT22;25998;46.604;13.610;2023-08-20T19:20:36;24.30;97.30
40287;DHT22;25998;46.604;13.610;2023-08-20T19:23:46;24.30;97.40
40287;DHT22;25998;46.604;13.610;2023-08-20T19:26:59;24.30;97.10
40287;DHT22;25998;46.604;13.610;2023-08-20T19:30:10;24.20;97.30
40287;DHT22;25998;46.604;13.610;2023-08-20T19:33:21;24.10;97.20
40287;DHT22;25998;46.604;13.610;2023-08-20T19:36:32;24.20;97.10
40287;DHT22;25998;46.604;13.610;2023-08-20T19:39:43;24.00;97.30
40287;DHT22;25998;46.604;13.610;2023-08-20T19:42:54;24.10;97.40
40287;DHT22;25998;46.604;13.610;2023-08-20T19:46:05;24.00;97.20
40287;DHT22;25998;46.604;13.610;2023-08-20T19:49:16;24.00;97.10
40287;DHT22;25998;46.604;13.610;2023-08-20T19:52:27;23.90;97.40
40287;DHT22;25998;46.604;13.610;2023-08-20T19:55:38;24.10;97.50
40287;DHT22;25998;46.604;13.610;2023-08-20T19:58:49;23.90;97.20
40287;DHT22;25998;46.604;13.610;2023-08-20T20:01:59;23.70;97.60
40287;DHT22;25998;46.604;13.610;2023-08-20T20:05:10;23.60;97.70
40287;DHT22;25998;46.604;13.610;2023-08-20T20:08:24;23.50;97.90